ARK weather

Arusha Airport
Arusha, Arusha Region, Tanzania

Public forecast

Using degrees Celsius for public forecast. Weather courtesy of forecast.io.

Current aviation weather report (METAR) for Arusha Airport

Retrieved 2019/10/18 15:00 UTC (43 minutes ago):

HTAR 181500Z 11010KT 9999 VCSH BKN023 FEW030 21/19 Q1016

Aviation forecast (TAF) for Arusha Airport

Forecast is more than 6 hours old.

Retrieved 2019/10/18 06:00 UTC (10 hours ago):

TAF HTAR 180500Z 1806/1906 12010KT 3000 DZ SCT006 OVC020 BECMG 1811/1815 9999 BKN026